Time;durP1;ratioP1;P1;durP2;ratioP2;P2;SDS_P1;SDS_P2;PMS_P1;PMS_P2;Temp;Humidity;BMP_temperature;BMP_pressure;BME280_temperature;BME280_humidity;BME280_pressure;Samples;Min_cycle;Max_cycle;Signal;HPM_P1;HPM_P2
2022/10/02 00:00:28;;;;;;;;;;;14.50;99.90;;;;;;5063367;28;19988;-66
2022/10/02 00:02:57;;;;;;;;;;;14.50;99.90;;;;;;5058694;28;19932;-67
2022/10/02 00:05:27;;;;;;;;;;;14.50;99.90;;;;;;5062501;28;19985;-66
2022/10/02 00:07:58;;;;;;;;;;;14.60;99.90;;;;;;5056278;28;19931;-66
2022/10/02 00:10:28;;;;;;;;;;;14.60;99.90;;;;;;5060149;28;20276;-66
2022/10/02 00:12:57;;;;;;;;;;;14.70;99.90;;;;;;5059996;28;19928;-66
2022/10/02 00:15:26;;;;;;;;;;;14.60;99.90;;;;;;5059836;28;19931;-67
2022/10/02 00:17:56;;;;;;;;;;;14.60;99.90;;;;;;5057772;28;19924;-67
2022/10/02 00:20:25;;;;;;;;;;;14.60;99.90;;;;;;5058305;28;19928;-67
2022/10/02 00:22:53;;;;;;;;;;;14.70;99.90;;;;;;5054935;28;19980;-67
2022/10/02 00:25:23;;;;;;;;;;;14.70;99.90;;;;;;5057637;28;19925;-67
2022/10/02 00:27:59;;;;;;;;;;;14.70;99.90;;;;;;5055368;28;19924;-66
2022/10/02 00:30:26;;;;;;;;;;;14.70;99.90;;;;;;5055304;28;19928;-66
2022/10/02 00:32:59;;;;;;;;;;;14.70;99.90;;;;;;5060491;28;19928;-66
2022/10/02 00:35:40;;;;;;;;;;;14.70;99.90;;;;;;5057421;28;19939;-67
2022/10/02 00:38:15;;;;;;;;;;;14.70;99.90;;;;;;5056076;28;19940;-67
2022/10/02 00:40:56;;;;;;;;;;;14.80;99.90;;;;;;5057229;28;19931;-67
2022/10/02 00:43:26;;;;;;;;;;;14.80;99.90;;;;;;5054965;28;20014;-67
2022/10/02 00:46:11;;;;;;;;;;;14.80;99.90;;;;;;5060948;28;19931;-67
2022/10/02 00:48:50;;;;;;;;;;;14.90;99.90;;;;;;5057880;28;20185;-67
2022/10/02 00:51:29;;;;;;;;;;;14.90;99.90;;;;;;5056124;28;20002;-67
2022/10/02 00:53:59;;;;;;;;;;;14.90;99.90;;;;;;5057314;28;19934;-66
2022/10/02 00:56:29;;;;;;;;;;;14.80;99.90;;;;;;5057787;28;20330;-67
2022/10/02 00:59:04;;;;;;;;;;;14.80;99.90;;;;;;5062396;28;20304;-66
2022/10/02 01:01:36;;;;;;;;;;;14.80;99.90;;;;;;5058351;28;19931;-66
2022/10/02 01:04:09;;;;;;;;;;;14.80;99.90;;;;;;5057331;28;20015;-66
2022/10/02 01:06:35;;;;;;;;;;;14.80;99.90;;;;;;5059298;28;19925;-66
2022/10/02 01:09:02;;;;;;;;;;;14.80;99.90;;;;;;5063872;28;20295;-66
2022/10/02 01:11:29;;;;;;;;;;;14.70;99.90;;;;;;5059220;28;20272;-67
2022/10/02 01:13:56;;;;;;;;;;;14.70;99.90;;;;;;5062178;28;19928;-66
2022/10/02 01:16:23;;;;;;;;;;;14.70;99.90;;;;;;5060938;28;19938;-67
2022/10/02 01:18:50;;;;;;;;;;;14.70;99.90;;;;;;5056261;28;19939;-67
2022/10/02 01:21:22;;;;;;;;;;;14.70;99.90;;;;;;5061296;28;20321;-66
2022/10/02 01:23:51;;;;;;;;;;;14.70;99.90;;;;;;5061812;28;19930;-67
2022/10/02 01:26:19;;;;;;;;;;;14.70;99.90;;;;;;5059140;28;19975;-67
2022/10/02 01:28:46;;;;;;;;;;;14.60;99.90;;;;;;5064355;28;19925;-67
2022/10/02 01:31:14;;;;;;;;;;;14.60;99.90;;;;;;5067625;28;19946;-66
2022/10/02 01:33:42;;;;;;;;;;;14.60;99.90;;;;;;5059754;28;19933;-67
2022/10/02 01:36:09;;;;;;;;;;;14.60;99.90;;;;;;5060158;28;19925;-67
2022/10/02 01:38:36;;;;;;;;;;;14.60;99.90;;;;;;5062953;28;20417;-66
2022/10/02 01:41:03;;;;;;;;;;;14.60;99.90;;;;;;5059119;28;19925;-66
2022/10/02 01:43:32;;;;;;;;;;;14.60;99.90;;;;;;5058483;28;20260;-67
2022/10/02 01:46:03;;;;;;;;;;;14.70;99.90;;;;;;5059009;28;19924;-67
2022/10/02 01:48:38;;;;;;;;;;;14.70;99.90;;;;;;5062139;28;19925;-67
2022/10/02 01:51:10;;;;;;;;;;;14.60;99.90;;;;;;5061390;28;20315;-67
2022/10/02 01:53:39;;;;;;;;;;;14.60;99.90;;;;;;5061733;28;19924;-67
2022/10/02 01:56:09;;;;;;;;;;;14.60;99.90;;;;;;5060042;28;19928;-67
2022/10/02 01:58:44;;;;;;;;;;;14.60;99.90;;;;;;5063959;28;19935;-68
2022/10/02 02:01:16;;;;;;;;;;;14.60;99.90;;;;;;5061560;28;19929;-67
2022/10/02 02:03:46;;;;;;;;;;;14.60;99.90;;;;;;5060391;28;21019;-68
2022/10/02 02:06:17;;;;;;;;;;;14.50;99.90;;;;;;5060067;28;19932;-67
2022/10/02 02:08:49;;;;;;;;;;;14.60;99.90;;;;;;5058518;28;20306;-68
2022/10/02 02:11:16;;;;;;;;;;;14.50;99.90;;;;;;5060730;28;19928;-67
2022/10/02 02:13:49;;;;;;;;;;;14.50;99.90;;;;;;5059208;28;21212;-67
2022/10/02 02:16:21;;;;;;;;;;;14.50;99.90;;;;;;5060172;28;19924;-68
2022/10/02 02:18:50;;;;;;;;;;;14.50;99.90;;;;;;5059131;28;19931;-67
2022/10/02 02:21:19;;;;;;;;;;;14.50;99.90;;;;;;5058836;28;19939;-67
2022/10/02 02:23:46;;;;;;;;;;;14.40;99.90;;;;;;5061960;28;20304;-67
2022/10/02 02:26:15;;;;;;;;;;;14.40;99.90;;;;;;5059819;28;19933;-68
2022/10/02 02:28:44;;;;;;;;;;;14.40;99.90;;;;;;5060126;28;19931;-68
2022/10/02 02:31:15;;;;;;;;;;;14.40;99.90;;;;;;5060592;28;19932;-68
2022/10/02 02:33:43;;;;;;;;;;;14.40;99.90;;;;;;5057886;28;19932;-67
2022/10/02 02:36:12;;;;;;;;;;;14.40;99.90;;;;;;5061164;28;20022;-68
2022/10/02 02:38:41;;;;;;;;;;;14.40;99.90;;;;;;5060622;28;19928;-68
2022/10/02 02:41:11;;;;;;;;;;;14.30;99.90;;;;;;5062545;28;20027;-68
2022/10/02 02:43:41;;;;;;;;;;;14.40;99.90;;;;;;5061077;28;20110;-68
2022/10/02 02:46:10;;;;;;;;;;;14.40;99.90;;;;;;5066512;28;20015;-67
2022/10/02 02:48:41;;;;;;;;;;;14.30;99.90;;;;;;5062449;28;19925;-67
2022/10/02 02:51:09;;;;;;;;;;;14.40;99.90;;;;;;5061411;28;20299;-67
2022/10/02 02:53:37;;;;;;;;;;;14.30;99.90;;;;;;5057140;28;19932;-67
2022/10/02 02:56:05;;;;;;;;;;;14.30;99.90;;;;;;5060640;28;19925;-67
2022/10/02 02:58:34;;;;;;;;;;;14.30;99.90;;;;;;5062226;28;19947;-67
2022/10/02 03:01:01;;;;;;;;;;;14.30;99.90;;;;;;5059173;28;20350;-67
2022/10/02 03:03:28;;;;;;;;;;;14.30;99.90;;;;;;5058168;28;20383;-68
2022/10/02 03:06:01;;;;;;;;;;;14.30;99.90;;;;;;5059697;28;19943;-67
2022/10/02 03:08:30;;;;;;;;;;;14.30;99.90;;;;;;5059777;28;19933;-67
2022/10/02 03:11:04;;;;;;;;;;;14.30;99.90;;;;;;5057629;28;19932;-67
2022/10/02 03:13:40;;;;;;;;;;;14.30;99.90;;;;;;5061466;28;20007;-67
2022/10/02 03:16:15;;;;;;;;;;;14.30;99.90;;;;;;5060546;28;19935;-66
2022/10/02 03:18:57;;;;;;;;;;;14.30;99.90;;;;;;5060115;28;20397;-66
2022/10/02 03:21:29;;;;;;;;;;;14.20;99.90;;;;;;5060008;28;19925;-67
2022/10/02 03:23:59;;;;;;;;;;;14.20;99.90;;;;;;5058301;28;19930;-67
2022/10/02 03:26:30;;;;;;;;;;;14.20;99.90;;;;;;5061511;28;19924;-67
2022/10/02 03:28:59;;;;;;;;;;;14.20;99.90;;;;;;5058044;28;19933;-67
2022/10/02 03:31:28;;;;;;;;;;;14.20;99.90;;;;;;5059449;28;19974;-67
2022/10/02 03:33:56;;;;;;;;;;;14.20;99.90;;;;;;5054553;28;19924;-67
2022/10/02 03:36:25;;;;;;;;;;;14.20;99.90;;;;;;5059839;28;19930;-67
2022/10/02 03:38:52;;;;;;;;;;;14.10;99.90;;;;;;5059550;28;19954;-67
2022/10/02 03:41:18;;;;;;;;;;;14.10;99.90;;;;;;5059792;28;19928;-67
2022/10/02 03:43:45;;;;;;;;;;;14.10;99.90;;;;;;5057880;28;20287;-67
2022/10/02 03:46:12;;;;;;;;;;;14.10;99.90;;;;;;5059086;28;20264;-67
2022/10/02 03:48:38;;;;;;;;;;;14.10;99.90;;;;;;5058517;28;20433;-67
2022/10/02 03:51:05;;;;;;;;;;;14.10;99.90;;;;;;5060516;28;19928;-68
2022/10/02 03:53:34;;;;;;;;;;;14.10;99.90;;;;;;5061239;28;19933;-67
2022/10/02 03:56:04;;;;;;;;;;;14.10;99.90;;;;;;5059303;28;20460;-67
2022/10/02 03:58:32;;;;;;;;;;;14.00;99.90;;;;;;5061804;28;20291;-67
2022/10/02 04:01:01;;;;;;;;;;;14.10;99.90;;;;;;5063026;28;19924;-67
2022/10/02 04:03:30;;;;;;;;;;;14.00;99.90;;;;;;5058714;28;19931;-67
2022/10/02 04:06:00;;;;;;;;;;;14.00;99.90;;;;;;5057393;28;19929;-67
2022/10/02 04:08:31;;;;;;;;;;;14.00;99.90;;;;;;5065742;28;19928;-67
2022/10/02 04:11:04;;;;;;;;;;;14.00;99.90;;;;;;5064902;28;20395;-67
2022/10/02 04:13:33;;;;;;;;;;;13.90;99.90;;;;;;5058232;28;19937;-67
2022/10/02 04:16:05;;;;;;;;;;;13.90;99.90;;;;;;5058178;28;19931;-67
2022/10/02 04:18:36;;;;;;;;;;;13.90;99.90;;;;;;5056059;28;20172;-67
2022/10/02 04:21:06;;;;;;;;;;;13.90;99.90;;;;;;5058790;28;19963;-67
2022/10/02 04:23:34;;;;;;;;;;;13.90;99.90;;;;;;5058912;28;19925;-67
2022/10/02 04:26:05;;;;;;;;;;;13.90;99.90;;;;;;5057494;28;19930;-67
2022/10/02 04:28:35;;;;;;;;;;;13.90;99.90;;;;;;5058231;28;20296;-66
2022/10/02 04:31:01;;;;;;;;;;;13.90;99.90;;;;;;5058591;28;19924;-67
2022/10/02 04:33:28;;;;;;;;;;;13.80;99.90;;;;;;5057282;28;20015;-67
2022/10/02 04:36:00;;;;;;;;;;;13.80;99.90;;;;;;5058107;28;20003;-67
2022/10/02 04:38:50;;;;;;;;;;;13.80;99.90;;;;;;5057110;28;20398;-67
2022/10/02 04:41:27;;;;;;;;;;;13.80;99.90;;;;;;5066674;28;19944;-67
2022/10/02 04:43:59;;;;;;;;;;;13.80;99.90;;;;;;5064860;28;19999;-67
2022/10/02 04:46:38;;;;;;;;;;;13.80;99.90;;;;;;5070508;28;19924;-67
2022/10/02 04:49:16;;;;;;;;;;;13.80;99.90;;;;;;5069631;28;19925;-67
2022/10/02 04:51:51;;;;;;;;;;;13.80;99.90;;;;;;5066540;28;22030;-67
2022/10/02 04:54:26;;;;;;;;;;;13.80;99.90;;;;;;5063436;28;19935;-67
2022/10/02 04:57:04;;;;;;;;;;;13.70;99.90;;;;;;5063716;28;19924;-67
2022/10/02 04:59:35;;;;;;;;;;;13.70;99.90;;;;;;5060056;28;20900;-67
2022/10/02 05:02:07;;;;;;;;;;;13.70;99.90;;;;;;5059184;28;20520;-67
2022/10/02 05:04:40;;;;;;;;;;;13.70;99.90;;;;;;5061354;28;19932;-68
2022/10/02 05:07:15;;;;;;;;;;;13.70;99.90;;;;;;5062169;28;19929;-68
2022/10/02 05:09:46;;;;;;;;;;;13.70;99.90;;;;;;5069258;28;19946;-67
2022/10/02 05:12:22;;;;;;;;;;;13.70;99.90;;;;;;5063042;28;19930;-68
2022/10/02 05:15:07;;;;;;;;;;;13.70;99.90;;;;;;5062199;28;19924;-69
2022/10/02 05:17:42;;;;;;;;;;;13.60;99.90;;;;;;5059672;28;21387;-68
2022/10/02 05:20:15;;;;;;;;;;;13.70;99.90;;;;;;5059515;28;20375;-67
2022/10/02 05:22:48;;;;;;;;;;;13.60;99.90;;;;;;5059779;28;19947;-68
2022/10/02 05:25:21;;;;;;;;;;;13.60;99.90;;;;;;5060467;28;19967;-67
2022/10/02 05:28:00;;;;;;;;;;;13.60;99.90;;;;;;5060528;28;19932;-67
2022/10/02 05:30:28;;;;;;;;;;;13.50;99.90;;;;;;5060425;28;20759;-67
2022/10/02 05:33:03;;;;;;;;;;;13.50;99.90;;;;;;5060649;28;19928;-67
2022/10/02 05:35:37;;;;;;;;;;;13.50;99.90;;;;;;5061199;28;20361;-67
2022/10/02 05:38:10;;;;;;;;;;;13.50;99.90;;;;;;5062129;28;19947;-67
2022/10/02 05:40:39;;;;;;;;;;;13.40;99.90;;;;;;5060998;28;19964;-67
2022/10/02 05:43:10;;;;;;;;;;;13.40;99.90;;;;;;5060809;28;20283;-67
2022/10/02 05:45:37;;;;;;;;;;;13.40;99.90;;;;;;5060053;28;21274;-67
2022/10/02 05:48:12;;;;;;;;;;;13.40;99.90;;;;;;5065600;28;20452;-67
2022/10/02 05:50:40;;;;;;;;;;;13.40;99.90;;;;;;5064894;28;19924;-67
2022/10/02 05:53:10;;;;;;;;;;;13.40;99.90;;;;;;5063715;28;19924;-67
2022/10/02 05:55:39;;;;;;;;;;;13.40;99.90;;;;;;5060920;28;20303;-67
2022/10/02 05:58:11;;;;;;;;;;;13.40;99.90;;;;;;5063079;28;19924;-68
2022/10/02 06:00:40;;;;;;;;;;;13.40;99.90;;;;;;5066961;28;20268;-67
2022/10/02 06:03:11;;;;;;;;;;;13.40;99.90;;;;;;5051522;28;19925;-67
2022/10/02 06:05:43;;;;;;;;;;;13.40;99.90;;;;;;5040250;28;20020;-69
2022/10/02 06:08:11;;;;;;;;;;;13.40;99.90;;;;;;5056076;28;19932;-69
2022/10/02 06:10:43;;;;;;;;;;;13.40;99.90;;;;;;5052653;28;19932;-69
2022/10/02 06:13:15;;;;;;;;;;;13.40;99.90;;;;;;5055413;28;19936;-70
2022/10/02 06:15:46;;;;;;;;;;;13.40;99.90;;;;;;5062554;28;19924;-69
2022/10/02 06:18:16;;;;;;;;;;;13.40;99.90;;;;;;5059604;28;19933;-69
2022/10/02 06:20:46;;;;;;;;;;;13.40;99.90;;;;;;5054786;28;20402;-70
2022/10/02 06:23:14;;;;;;;;;;;13.40;99.90;;;;;;5052183;28;19929;-69
2022/10/02 06:25:43;;;;;;;;;;;13.40;99.90;;;;;;5054812;28;19932;-69
2022/10/02 06:28:14;;;;;;;;;;;13.40;99.90;;;;;;5057350;28;19925;-70
2022/10/02 06:30:43;;;;;;;;;;;13.50;99.90;;;;;;5060552;28;19932;-70
2022/10/02 06:33:13;;;;;;;;;;;13.50;99.90;;;;;;5058048;28;19928;-70
2022/10/02 06:35:50;;;;;;;;;;;13.50;99.90;;;;;;5057313;28;19932;-70
2022/10/02 06:38:23;;;;;;;;;;;13.60;99.90;;;;;;5049814;28;20033;-70
2022/10/02 06:40:56;;;;;;;;;;;13.60;99.90;;;;;;5054739;28;19984;-70
2022/10/02 06:43:39;;;;;;;;;;;13.50;99.90;;;;;;5052598;28;19924;-69
2022/10/02 06:46:13;;;;;;;;;;;13.60;99.90;;;;;;5059507;28;19925;-70
2022/10/02 06:48:45;;;;;;;;;;;13.50;99.90;;;;;;5059035;28;19935;-69
2022/10/02 06:51:17;;;;;;;;;;;13.60;99.90;;;;;;5065998;28;19978;-70
2022/10/02 06:53:54;;;;;;;;;;;13.60;99.90;;;;;;5060191;28;19928;-70
2022/10/02 06:56:30;;;;;;;;;;;13.60;99.90;;;;;;5058615;28;21861;-70
2022/10/02 06:59:05;;;;;;;;;;;13.70;99.90;;;;;;5057225;28;19932;-70
2022/10/02 07:01:37;;;;;;;;;;;13.60;99.90;;;;;;5060524;28;19924;-70
2022/10/02 07:04:12;;;;;;;;;;;13.70;99.90;;;;;;5059087;28;19925;-70
2022/10/02 07:06:44;;;;;;;;;;;13.70;99.90;;;;;;5060523;28;20161;-70
2022/10/02 07:09:31;;;;;;;;;;;13.70;99.90;;;;;;5056105;28;19956;-70
2022/10/02 07:12:03;;;;;;;;;;;13.70;99.90;;;;;;5062998;28;19931;-70
2022/10/02 07:14:35;;;;;;;;;;;13.60;99.90;;;;;;5059420;28;20406;-69
2022/10/02 07:17:08;;;;;;;;;;;13.70;99.90;;;;;;5056715;28;21893;-69
2022/10/02 07:19:50;;;;;;;;;;;13.70;99.90;;;;;;5060302;28;20311;-68
2022/10/02 07:22:34;;;;;;;;;;;13.70;99.90;;;;;;5055844;28;19930;-68
2022/10/02 07:25:16;;;;;;;;;;;13.70;99.90;;;;;;5056336;28;19933;-69
2022/10/02 07:27:47;;;;;;;;;;;13.70;99.90;;;;;;5050618;28;19932;-70
2022/10/02 07:30:16;;;;;;;;;;;13.70;99.90;;;;;;5052383;28;19928;-69
2022/10/02 07:32:47;;;;;;;;;;;13.80;99.90;;;;;;5052279;28;19928;-69
2022/10/02 07:35:22;;;;;;;;;;;13.80;99.90;;;;;;5058574;28;19932;-69
2022/10/02 07:37:53;;;;;;;;;;;13.80;99.90;;;;;;5056272;28;19938;-70
2022/10/02 07:40:25;;;;;;;;;;;13.80;99.90;;;;;;5065470;28;19943;-69
2022/10/02 07:43:05;;;;;;;;;;;13.80;99.90;;;;;;5066534;28;19994;-69
2022/10/02 07:45:36;;;;;;;;;;;13.80;99.90;;;;;;5068419;28;19929;-69
2022/10/02 07:48:26;;;;;;;;;;;13.90;99.90;;;;;;5062640;28;20398;-69
2022/10/02 07:51:01;;;;;;;;;;;13.90;99.90;;;;;;5040465;28;20023;-69
2022/10/02 07:53:30;;;;;;;;;;;14.00;99.90;;;;;;5058953;28;20039;-69
2022/10/02 07:55:58;;;;;;;;;;;14.00;99.90;;;;;;5062961;28;19947;-68
2022/10/02 07:58:30;;;;;;;;;;;14.10;99.90;;;;;;5060809;28;20402;-69
2022/10/02 08:01:00;;;;;;;;;;;14.10;99.90;;;;;;5065305;28;19932;-69
2022/10/02 08:03:30;;;;;;;;;;;14.20;99.90;;;;;;5058673;28;20357;-69
2022/10/02 08:05:58;;;;;;;;;;;14.20;99.90;;;;;;5064917;28;20359;-69
2022/10/02 08:08:28;;;;;;;;;;;14.30;99.90;;;;;;5062206;28;20031;-69
2022/10/02 08:10:56;;;;;;;;;;;14.30;99.90;;;;;;5058084;28;19931;-69
2022/10/02 08:13:27;;;;;;;;;;;14.30;99.90;;;;;;5059190;28;20470;-69
2022/10/02 08:15:55;;;;;;;;;;;14.40;99.90;;;;;;5064459;28;20127;-69
2022/10/02 08:18:27;;;;;;;;;;;14.30;99.90;;;;;;5062306;28;19924;-69
2022/10/02 08:20:54;;;;;;;;;;;14.20;99.90;;;;;;5067990;28;19924;-68
2022/10/02 08:23:23;;;;;;;;;;;14.20;99.90;;;;;;5067302;28;20026;-69
2022/10/02 08:25:52;;;;;;;;;;;14.20;99.90;;;;;;5067087;28;19928;-69
2022/10/02 08:28:21;;;;;;;;;;;14.20;99.90;;;;;;5067370;28;20025;-68
2022/10/02 08:30:48;;;;;;;;;;;14.30;99.90;;;;;;5069517;28;19924;-69
2022/10/02 08:33:16;;;;;;;;;;;14.30;99.90;;;;;;5063852;28;19928;-69
2022/10/02 08:35:49;;;;;;;;;;;14.30;99.90;;;;;;5065470;28;19925;-69
2022/10/02 08:38:24;;;;;;;;;;;14.40;99.90;;;;;;5064916;28;20011;-69
2022/10/02 08:41:12;;;;;;;;;;;14.30;99.90;;;;;;5061374;28;19939;-68
2022/10/02 08:43:53;;;;;;;;;;;14.30;99.90;;;;;;5060072;28;19924;-68
2022/10/02 08:46:34;;;;;;;;;;;14.40;99.90;;;;;;5058515;28;19935;-69
2022/10/02 08:49:24;;;;;;;;;;;14.40;99.90;;;;;;5055088;28;19932;-69
2022/10/02 08:52:05;;;;;;;;;;;14.40;99.90;;;;;;4967158;28;19933;-69
2022/10/02 08:54:41;;;;;;;;;;;14.50;99.90;;;;;;5063233;28;19931;-69
2022/10/02 08:57:15;;;;;;;;;;;14.60;99.90;;;;;;5057160;28;20368;-70
2022/10/02 08:59:59;;;;;;;;;;;14.50;99.90;;;;;;5060000;28;19997;-70
2022/10/02 09:02:51;;;;;;;;;;;14.50;99.90;;;;;;5055753;28;19928;-70
2022/10/02 09:05:45;;;;;;;;;;;14.40;99.90;;;;;;5051562;28;20017;-69
2022/10/02 09:08:27;;;;;;;;;;;14.40;99.90;;;;;;5054650;28;20433;-69
2022/10/02 09:11:21;;;;;;;;;;;14.40;99.90;;;;;;5059455;28;19925;-69
2022/10/02 09:14:09;;;;;;;;;;;14.40;99.90;;;;;;5056215;28;20294;-70
2022/10/02 09:16:39;;;;;;;;;;;14.40;99.90;;;;;;5057524;28;19932;-70
2022/10/02 09:19:19;;;;;;;;;;;14.40;99.90;;;;;;5054635;28;19950;-70
2022/10/02 09:21:50;;;;;;;;;;;14.50;99.90;;;;;;5060100;28;19925;-69
2022/10/02 09:24:32;;;;;;;;;;;14.60;99.90;;;;;;5054095;28;19936;-69
2022/10/02 09:27:17;;;;;;;;;;;14.50;99.90;;;;;;5061309;28;19931;-69
2022/10/02 09:30:02;;;;;;;;;;;14.60;99.90;;;;;;5058630;28;19943;-69
2022/10/02 09:32:52;;;;;;;;;;;14.60;99.90;;;;;;5060413;28;20063;-70
2022/10/02 09:35:40;;;;;;;;;;;14.60;99.90;;;;;;5059969;28;20295;-70
2022/10/02 09:38:26;;;;;;;;;;;14.80;99.90;;;;;;5053639;28;19925;-70
2022/10/02 09:41:19;;;;;;;;;;;14.90;99.90;;;;;;5045474;28;19940;-69
2022/10/02 09:44:10;;;;;;;;;;;14.90;99.90;;;;;;5059133;28;20099;-70
2022/10/02 09:46:46;;;;;;;;;;;14.90;99.90;;;;;;5064051;28;19931;-69
2022/10/02 09:49:24;;;;;;;;;;;14.90;99.90;;;;;;5062520;28;20387;-70
2022/10/02 09:52:10;;;;;;;;;;;14.90;99.90;;;;;;5063520;28;19936;-69
2022/10/02 09:55:04;;;;;;;;;;;15.00;99.90;;;;;;5058723;28;19968;-70
2022/10/02 09:57:49;;;;;;;;;;;15.00;99.90;;;;;;5063803;28;19930;-70
2022/10/02 10:00:19;;;;;;;;;;;14.90;99.90;;;;;;5063711;28;19924;-69
2022/10/02 10:03:09;;;;;;;;;;;14.90;99.90;;;;;;5061873;28;20374;-69
2022/10/02 10:06:02;;;;;;;;;;;14.80;99.90;;;;;;5061594;28;19959;-69
2022/10/02 10:09:06;;;;;;;;;;;14.80;99.90;;;;;;5023797;28;20697;-68
2022/10/02 10:11:53;;;;;;;;;;;14.90;99.90;;;;;;5059928;28;20475;-70
2022/10/02 10:14:35;;;;;;;;;;;14.80;99.90;;;;;;5060714;28;20031;-69
2022/10/02 10:17:21;;;;;;;;;;;14.90;99.90;;;;;;5062447;28;20338;-69
2022/10/02 10:20:06;;;;;;;;;;;15.00;99.90;;;;;;5058257;28;19925;-69
2022/10/02 10:23:00;;;;;;;;;;;15.10;99.90;;;;;;5061627;28;19929;-68
2022/10/02 10:25:49;;;;;;;;;;;15.00;99.90;;;;;;5058362;28;20054;-68
2022/10/02 10:28:25;;;;;;;;;;;15.00;99.90;;;;;;5059994;28;20399;-68
2022/10/02 10:31:08;;;;;;;;;;;15.10;99.90;;;;;;5060660;28;19928;-68
2022/10/02 10:34:06;;;;;;;;;;;15.20;99.90;;;;;;5060220;28;19928;-68
2022/10/02 10:39:43;;;;;;;;;;;15.20;99.90;;;;;;5059169;28;20524;-68
2022/10/02 10:42:25;;;;;;;;;;;15.30;99.90;;;;;;5059057;28;19935;-68
2022/10/02 10:45:03;;;;;;;;;;;15.40;99.90;;;;;;5061332;28;19924;-68
2022/10/02 10:47:37;;;;;;;;;;;15.40;99.90;;;;;;5059475;28;20299;-68
2022/10/02 10:50:14;;;;;;;;;;;15.50;99.90;;;;;;5063444;28;19924;-67
2022/10/02 10:52:53;;;;;;;;;;;15.50;99.90;;;;;;5063517;28;20294;-68
2022/10/02 10:55:35;;;;;;;;;;;15.50;99.90;;;;;;5058205;28;19925;-67
2022/10/02 10:58:13;;;;;;;;;;;15.50;99.90;;;;;;5062553;28;20005;-68
2022/10/02 11:00:45;;;;;;;;;;;15.40;99.90;;;;;;5068792;28;19995;-68
2022/10/02 11:03:26;;;;;;;;;;;15.40;99.90;;;;;;5066263;28;20047;-68
2022/10/02 11:06:20;;;;;;;;;;;15.40;99.90;;;;;;5063507;28;19924;-67
2022/10/02 11:09:08;;;;;;;;;;;15.50;99.90;;;;;;5067290;28;20257;-68
2022/10/02 11:11:40;;;;;;;;;;;15.50;99.90;;;;;;5058268;28;20630;-70
2022/10/02 11:14:20;;;;;;;;;;;15.40;99.90;;;;;;5059569;28;19929;-67
2022/10/02 11:17:06;;;;;;;;;;;15.50;99.90;;;;;;5062930;28;20269;-68
2022/10/02 11:19:40;;;;;;;;;;;15.60;99.90;;;;;;5060237;28;19928;-68
2022/10/02 11:22:24;;;;;;;;;;;15.60;99.90;;;;;;5063504;28;19932;-68
2022/10/02 11:25:00;;;;;;;;;;;15.70;99.90;;;;;;5054919;28;19935;-68
2022/10/02 11:27:44;;;;;;;;;;;15.80;99.90;;;;;;5060651;28;19964;-68
2022/10/02 11:30:20;;;;;;;;;;;15.90;99.90;;;;;;5063880;28;19928;-68
2022/10/02 11:33:01;;;;;;;;;;;15.90;99.90;;;;;;5067807;28;19936;-68
2022/10/02 11:35:41;;;;;;;;;;;15.90;99.90;;;;;;5067696;28;20318;-67
2022/10/02 11:38:23;;;;;;;;;;;15.80;99.90;;;;;;5060353;28;20450;-68
2022/10/02 11:41:05;;;;;;;;;;;15.90;99.90;;;;;;5035898;28;19983;-68
2022/10/02 11:43:37;;;;;;;;;;;16.00;99.90;;;;;;5066018;28;19971;-68
2022/10/02 11:46:14;;;;;;;;;;;16.00;99.90;;;;;;5066147;28;20373;-68
2022/10/02 11:48:59;;;;;;;;;;;16.10;99.90;;;;;;5053887;28;20287;-68
2022/10/02 11:51:32;;;;;;;;;;;16.10;99.90;;;;;;5068200;28;20290;-67
2022/10/02 11:54:09;;;;;;;;;;;16.20;99.90;;;;;;5055906;28;19956;-66
2022/10/02 11:56:44;;;;;;;;;;;16.20;99.90;;;;;;5060493;28;20059;-68
2022/10/02 11:59:32;;;;;;;;;;;16.20;99.90;;;;;;5052795;28;20031;-66
2022/10/02 12:02:11;;;;;;;;;;;16.20;99.90;;;;;;5024728;28;19955;-64
2022/10/02 12:05:09;;;;;;;;;;;16.30;99.90;;;;;;5061659;28;19924;-66
2022/10/02 12:07:38;;;;;;;;;;;16.40;99.90;;;;;;5065237;28;20403;-67
2022/10/02 12:10:14;;;;;;;;;;;16.60;99.90;;;;;;5064242;28;19928;-67
2022/10/02 12:12:50;;;;;;;;;;;16.50;99.90;;;;;;5061251;28;19925;-66
2022/10/02 12:15:24;;;;;;;;;;;16.50;99.90;;;;;;5061183;28;19928;-66
2022/10/02 12:18:05;;;;;;;;;;;16.50;99.90;;;;;;5059659;28;19967;-67
2022/10/02 12:29:24;;;;;;;;;;;16.70;99.90;;;;;;5064981;28;19930;-65
2022/10/02 12:31:52;;;;;;;;;;;16.70;99.90;;;;;;5062033;28;20298;-65
2022/10/02 12:34:34;;;;;;;;;;;16.70;99.90;;;;;;5066175;28;19967;-65
2022/10/02 12:37:05;;;;;;;;;;;16.70;99.90;;;;;;5060525;28;19983;-65
2022/10/02 12:39:40;;;;;;;;;;;16.70;99.90;;;;;;5064910;28;19924;-66
2022/10/02 12:42:12;;;;;;;;;;;16.60;99.90;;;;;;5069830;28;19933;-65
2022/10/02 12:44:50;;;;;;;;;;;16.50;99.90;;;;;;5058916;28;20379;-66
2022/10/02 12:47:22;;;;;;;;;;;16.40;99.90;;;;;;5063348;28;19962;-67
2022/10/02 12:49:54;;;;;;;;;;;16.40;99.90;;;;;;5066979;28;19924;-67
2022/10/02 12:52:42;;;;;;;;;;;16.50;99.90;;;;;;5066884;28;20019;-67
2022/10/02 12:55:27;;;;;;;;;;;16.70;99.90;;;;;;5063887;28;19962;-67
2022/10/02 12:58:02;;;;;;;;;;;16.70;99.90;;;;;;5060324;28;19925;-68
2022/10/02 13:00:32;;;;;;;;;;;16.70;99.90;;;;;;5061917;28;19930;-67
2022/10/02 13:03:07;;;;;;;;;;;16.70;99.90;;;;;;5065566;28;19931;-67
2022/10/02 13:05:46;;;;;;;;;;;16.80;99.90;;;;;;5063359;28;21350;-67
2022/10/02 13:08:18;;;;;;;;;;;17.00;99.90;;;;;;5062239;28;20311;-67
2022/10/02 13:10:46;;;;;;;;;;;16.80;99.90;;;;;;5070342;28;19924;-67
2022/10/02 13:13:21;;;;;;;;;;;16.70;99.90;;;;;;5066478;28;19928;-67
2022/10/02 13:15:53;;;;;;;;;;;16.60;99.90;;;;;;5071724;28;19966;-68
2022/10/02 13:18:25;;;;;;;;;;;16.70;99.90;;;;;;5069224;28;19924;-67
2022/10/02 13:21:00;;;;;;;;;;;16.60;99.90;;;;;;5072595;28;20338;-67
2022/10/02 13:23:34;;;;;;;;;;;16.50;99.90;;;;;;5070691;28;19932;-67
2022/10/02 13:26:11;;;;;;;;;;;16.60;99.90;;;;;;5071355;28;20379;-67
2022/10/02 13:28:58;;;;;;;;;;;16.70;99.90;;;;;;5068934;28;20231;-68
2022/10/02 13:31:35;;;;;;;;;;;16.70;99.90;;;;;;5062875;28;20030;-67
2022/10/02 13:34:24;;;;;;;;;;;16.70;99.90;;;;;;5069622;28;20013;-68
2022/10/02 13:36:59;;;;;;;;;;;16.80;99.90;;;;;;5070620;28;19931;-67
2022/10/02 13:39:36;;;;;;;;;;;16.80;99.90;;;;;;5070420;28;19978;-68
2022/10/02 13:42:10;;;;;;;;;;;16.70;99.90;;;;;;5072233;28;19928;-67
2022/10/02 13:44:41;;;;;;;;;;;16.70;99.90;;;;;;5071316;28;20375;-68
2022/10/02 13:47:16;;;;;;;;;;;16.90;99.90;;;;;;5072526;28;19925;-67
2022/10/02 13:49:52;;;;;;;;;;;16.90;99.90;;;;;;5068321;28;19932;-68
2022/10/02 13:52:26;;;;;;;;;;;17.00;99.90;;;;;;5072355;28;19924;-67
2022/10/02 13:55:03;;;;;;;;;;;17.10;99.90;;;;;;5070071;28;20445;-68
2022/10/02 13:57:38;;;;;;;;;;;17.00;99.90;;;;;;5071077;28;20038;-67
2022/10/02 14:00:09;;;;;;;;;;;16.80;99.90;;;;;;5070490;28;20310;-67
2022/10/02 14:02:44;;;;;;;;;;;16.70;99.90;;;;;;5068140;28;20011;-68
2022/10/02 14:05:18;;;;;;;;;;;16.70;99.90;;;;;;5071705;28;19925;-68
2022/10/02 14:07:51;;;;;;;;;;;16.70;99.90;;;;;;5068437;28;19932;-68
2022/10/02 14:10:26;;;;;;;;;;;16.70;99.90;;;;;;5072065;28;19925;-68
2022/10/02 14:12:58;;;;;;;;;;;16.80;99.90;;;;;;5068726;28;19975;-67
2022/10/02 14:15:30;;;;;;;;;;;16.80;99.90;;;;;;5071683;28;19924;-68
2022/10/02 14:18:08;;;;;;;;;;;16.90;99.90;;;;;;5067985;28;21329;-67
2022/10/02 14:20:39;;;;;;;;;;;16.90;99.90;;;;;;5065894;28;20374;-68
2022/10/02 14:23:25;;;;;;;;;;;17.10;99.90;;;;;;5070640;28;20250;-68
2022/10/02 14:25:58;;;;;;;;;;;17.20;99.90;;;;;;5071242;28;20299;-68
2022/10/02 14:28:58;;;;;;;;;;;17.10;99.90;;;;;;5065600;28;19996;-68
2022/10/02 14:31:43;;;;;;;;;;;17.30;99.90;;;;;;5005939;28;19964;-69
2022/10/02 14:34:36;;;;;;;;;;;17.50;99.90;;;;;;4991690;28;19926;-68
2022/10/02 14:37:22;;;;;;;;;;;17.70;99.90;;;;;;5018136;28;20490;-67
2022/10/02 14:39:49;;;;;;;;;;;17.90;99.90;;;;;;5068539;28;19986;-67
2022/10/02 14:42:25;;;;;;;;;;;17.90;99.90;;;;;;5068516;28;19931;-67
2022/10/02 14:45:03;;;;;;;;;;;17.80;99.90;;;;;;5067870;28;19931;-67
2022/10/02 14:47:41;;;;;;;;;;;17.90;99.90;;;;;;5068119;28;19939;-68
2022/10/02 14:50:14;;;;;;;;;;;17.90;99.90;;;;;;5065437;28;19975;-67
2022/10/02 14:52:47;;;;;;;;;;;17.90;99.90;;;;;;5068312;28;19958;-66
2022/10/02 14:55:18;;;;;;;;;;;18.00;99.90;;;;;;5069634;28;19954;-67
2022/10/02 14:57:58;;;;;;;;;;;18.00;99.90;;;;;;5063726;28;19932;-68
2022/10/02 15:00:27;;;;;;;;;;;17.80;99.90;;;;;;5069314;28;19935;-68
2022/10/02 15:03:03;;;;;;;;;;;17.60;99.90;;;;;;5067345;28;19928;-67
2022/10/02 15:05:41;;;;;;;;;;;17.40;99.90;;;;;;5067542;28;19924;-67
2022/10/02 15:08:11;;;;;;;;;;;17.30;99.90;;;;;;5065799;28;20383;-67
2022/10/02 15:10:38;;;;;;;;;;;17.20;99.90;;;;;;5062150;28;20272;-67